PADU

Details ICAO PADU (DUT)
Name UNALASKA
Region USA (Alaska)
Timezone America/Adak (UTC-9.0)
Plans Departing 29
Arriving 28
Stats Elevation 22 ft / 7 m (AMSL)
Location 53.899070° -166.545064°
Runways 1
Magnetic Variation 9.279° E
Sunrise 2017-03-23 17:01:09 UTC / 2017-03-23 08:01:09 Local
Sunset 2017-03-24 05:26:31 UTC / 2017-03-23 20:26:31 Local
Advertisement - Login to hide

Runways

ID Width Length Bearing (true) Bearing (mag) Surface Threshold Offset Overrun Length
12 100 ft / 30 m 3,895 ft / 1,187 m 135.64° 126.36° Asphalt 100 ft / 30 m 0 ft / 0 m
30 100 ft / 30 m 3,895 ft / 1,187 m 315.65° 306.37° Asphalt 101 ft / 31 m 0 ft / 0 m

Map

Weather

Temperature
Clouds and Precipitation
Forecast for 2017-03-24 12:00 UTC. Updated 41 minutes ago
Winds

METAR

PADU 240956Z AUTO 16006KT 10SM FEW026 01/M04 A2991

TAF

TAF PADU 240539Z 2406/2506 03008KT P6SM SKC FM241200 11008KT P6SM SCT025 FM241800 10008KT P6SM SCT020 BKN025 FM242100 11011G20KT P6SM BKN025 OVC050

Frequencies

Recorded 125.80 MHz AWOS 3
Unicom 122.60 MHz CTAF
Warning: Do not use this data for real-world aviation or navigation. No guarantee of current accuracy is given.